createdAt,value
2023-01-06T00:01:39.532Z,2.10
2023-01-06T00:04:08.697Z,2.25
2023-01-06T00:06:38.037Z,1.98
2023-01-06T00:09:07.442Z,2.03
2023-01-06T00:11:38.092Z,2.15
2023-01-06T00:14:07.377Z,2.38
2023-01-06T00:16:39.389Z,1.83
2023-01-06T00:19:08.580Z,1.85
2023-01-06T00:21:38.163Z,2.03
2023-01-06T00:24:07.792Z,1.90
2023-01-06T00:26:37.216Z,2.38
2023-01-06T00:29:06.848Z,1.52
2023-01-06T00:31:37.892Z,2.00
2023-01-06T00:34:08.403Z,2.65
2023-01-06T00:36:37.887Z,1.90
2023-01-06T00:39:06.938Z,1.95
2023-01-06T00:42:08.183Z,2.00
2023-01-06T00:44:39.129Z,2.03
2023-01-06T00:47:11.201Z,2.00
2023-01-06T00:49:41.735Z,2.30
2023-01-06T00:52:11.281Z,2.08
2023-01-06T00:54:40.798Z,2.28
2023-01-06T00:57:11.501Z,2.05
2023-01-06T00:59:40.566Z,1.77
2023-01-06T01:02:10.004Z,2.20
2023-01-06T01:04:40.421Z,1.98
2023-01-06T01:07:10.502Z,2.38
2023-01-06T01:09:41.465Z,1.83
2023-01-06T01:12:12.980Z,2.17
2023-01-06T01:14:47.139Z,1.77
2023-01-06T01:17:19.355Z,2.20
2023-01-06T01:19:51.657Z,2.83
2023-01-06T01:22:21.642Z,1.88
2023-01-06T01:24:50.691Z,2.00
2023-01-06T01:27:20.397Z,1.58
2023-01-06T01:29:49.649Z,2.35
2023-01-06T01:32:19.392Z,1.75
2023-01-06T01:34:49.962Z,1.77
2023-01-06T01:37:19.356Z,2.35
2023-01-06T01:39:49.211Z,2.00
2023-01-06T01:42:21.184Z,2.08
2023-01-06T01:44:57.645Z,2.10
2023-01-06T01:47:38.628Z,1.95
2023-01-06T01:50:15.918Z,1.88
2023-01-06T01:52:48.152Z,1.50
2023-01-06T01:55:19.420Z,1.95
2023-01-06T01:57:53.063Z,1.30
2023-01-06T02:00:22.413Z,1.33
2023-01-06T02:02:51.955Z,1.25
2023-01-06T02:05:25.736Z,1.70
2023-01-06T02:07:58.578Z,1.75
2023-01-06T02:10:27.776Z,2.05
2023-01-06T02:13:01.038Z,1.80
2023-01-06T02:15:32.244Z,1.98
2023-01-06T02:18:38.597Z,1.40
2023-01-06T02:21:35.578Z,2.15
2023-01-06T02:24:39.083Z,1.60
2023-01-06T02:27:42.610Z,1.60
2023-01-06T02:30:51.106Z,1.58
2023-01-06T02:33:27.911Z,1.52
2023-01-06T02:36:10.813Z,1.77
2023-01-06T02:38:55.065Z,1.90
2023-01-06T02:41:34.401Z,1.50
2023-01-06T02:44:14.083Z,1.08
2023-01-06T02:47:00.266Z,1.67
2023-01-06T02:49:41.586Z,1.60
2023-01-06T02:52:15.800Z,1.40
2023-01-06T02:57:28.488Z,1.40
2023-01-06T03:00:09.786Z,1.25
2023-01-06T03:02:41.803Z,1.50
2023-01-06T03:05:17.334Z,1.38
2023-01-06T03:07:49.067Z,1.75
2023-01-06T03:10:21.028Z,1.52
2023-01-06T03:12:54.647Z,1.50
2023-01-06T03:15:26.274Z,2.55
2023-01-06T03:17:56.388Z,2.38
2023-01-06T03:20:27.009Z,2.28
2023-01-06T03:22:56.562Z,1.70
2023-01-06T03:25:25.615Z,1.90
2023-01-06T03:27:55.094Z,1.92
2023-01-06T03:35:54.274Z,2.38
2023-01-06T03:38:32.268Z,2.13
2023-01-06T03:41:10.420Z,2.50
2023-01-06T03:43:49.476Z,2.05
2023-01-06T03:46:28.288Z,5.38
2023-01-06T03:49:06.547Z,7.15
2023-01-06T03:51:49.858Z,5.22
2023-01-06T03:58:54.319Z,4.15
2023-01-06T04:01:26.742Z,7.20
2023-01-06T04:03:58.058Z,8.52
2023-01-06T04:06:30.700Z,5.38
2023-01-06T04:13:42.501Z,2.65
2023-01-06T04:16:12.029Z,2.70
2023-01-06T04:18:41.324Z,13.10
2023-01-06T04:21:10.785Z,4.63
2023-01-06T04:28:53.369Z,1.98
2023-01-06T04:31:22.939Z,2.33
2023-01-06T04:33:54.538Z,2.08
2023-01-06T04:36:24.238Z,2.08
2023-01-06T04:38:56.642Z,2.22
2023-01-06T04:41:26.018Z,2.22
2023-01-06T04:53:34.235Z,2.08
2023-01-06T04:56:05.257Z,1.85
2023-01-06T04:58:35.009Z,1.90
2023-01-06T05:01:05.085Z,2.03
2023-01-06T05:03:35.165Z,2.00
2023-01-06T05:06:05.513Z,2.00
2023-01-06T05:08:35.940Z,2.00
2023-01-06T05:11:09.253Z,2.15
2023-01-06T05:13:38.463Z,2.88
2023-01-06T05:16:08.973Z,2.72
2023-01-06T05:24:01.968Z,2.93
2023-01-06T05:26:31.403Z,2.40
2023-01-06T05:34:13.608Z,5.35
2023-01-06T05:36:42.977Z,3.67
2023-01-06T05:39:13.719Z,2.10
2023-01-06T05:41:43.084Z,2.05
2023-01-06T05:44:12.343Z,2.22
2023-01-06T05:56:27.476Z,1.63
2023-01-06T05:58:57.184Z,1.75
2023-01-06T06:01:28.101Z,1.75
2023-01-06T06:03:58.423Z,2.00
2023-01-06T06:06:29.686Z,2.20
2023-01-06T06:08:59.552Z,2.33
2023-01-06T06:11:30.160Z,2.17
2023-01-06T06:14:00.579Z,2.50
2023-01-06T06:16:30.426Z,2.60
2023-01-06T06:19:00.693Z,2.50
2023-01-06T06:21:31.367Z,2.40
2023-01-06T06:33:36.762Z,2.55
2023-01-06T06:36:09.773Z,2.30
2023-01-06T06:38:39.115Z,2.40
2023-01-06T06:41:08.604Z,1.88
2023-01-06T06:43:37.916Z,2.13
2023-01-06T06:46:07.765Z,2.47
2023-01-06T06:48:38.795Z,2.20
2023-01-06T06:51:10.415Z,2.55
2023-01-06T06:58:01.342Z,3.08
2023-01-06T07:05:36.023Z,3.67
2023-01-06T07:08:05.943Z,2.30
2023-01-06T07:10:35.122Z,2.17
2023-01-06T07:13:05.145Z,1.90
2023-01-06T07:15:34.316Z,1.90
2023-01-06T07:18:04.654Z,2.47
2023-01-06T07:20:37.243Z,3.05
2023-01-06T07:30:48.634Z,3.25
2023-01-06T07:33:18.243Z,2.53
2023-01-06T07:35:49.306Z,2.35
2023-01-06T07:38:18.426Z,2.08
2023-01-06T07:40:47.937Z,2.40
2023-01-06T07:43:18.091Z,2.72
2023-01-06T07:45:48.889Z,2.92
2023-01-06T07:48:18.268Z,2.50
2023-01-06T07:50:49.195Z,3.05
2023-01-06T07:58:31.812Z,3.40
2023-01-06T08:01:07.625Z,3.35
2023-01-06T08:03:37.160Z,3.92
2023-01-06T08:06:12.978Z,3.38
2023-01-06T08:08:43.480Z,3.47
2023-01-06T08:11:14.489Z,4.40
2023-01-06T08:13:43.528Z,2.78
2023-01-06T08:16:13.258Z,2.72
2023-01-06T08:18:42.558Z,2.75
2023-01-06T08:31:17.162Z,2.17
2023-01-06T08:57:42.018Z,4.65
2023-01-06T09:30:18.979Z,4.40
2023-01-06T10:07:32.995Z,6.15
2023-01-06T11:33:32.594Z,5.13
2023-01-06T12:08:01.795Z,6.97
2023-01-06T12:15:46.563Z,6.20
2023-01-06T12:24:36.062Z,4.35
2023-01-06T12:47:03.388Z,6.05
2023-01-06T13:14:49.527Z,8.93
2023-01-06T13:53:39.447Z,8.57
2023-01-06T14:11:03.036Z,18.33
2023-01-06T14:57:34.685Z,9.23
2023-01-06T15:13:05.378Z,8.32
2023-01-06T15:35:31.706Z,10.10
2023-01-06T16:14:00.636Z,14.05
2023-01-06T16:21:17.393Z,16.65
2023-01-06T16:48:01.336Z,16.58
2023-01-06T17:06:41.360Z,16.83
2023-01-06T17:09:20.258Z,14.45
2023-01-06T17:11:49.897Z,12.73
2023-01-06T17:14:21.028Z,15.70
2023-01-06T17:16:50.635Z,11.98
2023-01-06T17:19:23.349Z,12.50
2023-01-06T17:22:00.718Z,16.38
2023-01-06T17:24:31.940Z,11.80
2023-01-06T17:27:07.253Z,9.95
2023-01-06T17:29:38.213Z,13.15
2023-01-06T17:32:16.363Z,11.35
2023-01-06T17:34:46.255Z,14.23
2023-01-06T17:37:20.734Z,14.10
2023-01-06T17:39:50.962Z,12.73
2023-01-06T17:42:30.676Z,14.15
2023-01-06T17:45:01.737Z,17.40
2023-01-06T17:47:37.470Z,16.85
2023-01-06T17:50:34.025Z,16.42
2023-01-06T17:53:36.267Z,18.05
2023-01-06T17:56:08.134Z,22.38
2023-01-06T17:58:39.703Z,16.35
2023-01-06T18:01:11.187Z,13.18
2023-01-06T18:03:43.705Z,15.85
2023-01-06T18:06:37.484Z,15.98
2023-01-06T18:09:18.880Z,14.73
2023-01-06T18:11:50.659Z,14.55
2023-01-06T18:14:32.231Z,16.17
2023-01-06T18:17:09.516Z,13.23
2023-01-06T18:19:39.209Z,13.50
2023-01-06T18:22:16.985Z,18.92
2023-01-06T18:24:48.412Z,16.27
2023-01-06T18:27:23.996Z,13.45
2023-01-06T18:29:53.594Z,15.85
2023-01-06T18:32:32.631Z,13.52
2023-01-06T18:35:03.792Z,12.75
2023-01-06T18:37:36.542Z,13.10
2023-01-06T18:40:13.633Z,14.45
2023-01-06T18:42:44.972Z,16.80
2023-01-06T18:45:24.362Z,21.35
2023-01-06T18:47:56.339Z,15.38
2023-01-06T18:50:36.936Z,15.57
2023-01-06T18:53:19.861Z,14.57
2023-01-06T18:55:52.162Z,15.77
2023-01-06T18:58:46.264Z,13.73
2023-01-06T19:01:20.232Z,13.52
2023-01-06T19:03:59.971Z,12.70
2023-01-06T19:06:40.799Z,13.55
2023-01-06T19:09:24.374Z,11.68
2023-01-06T19:12:02.112Z,12.05
2023-01-06T19:14:39.404Z,13.57
2023-01-06T19:17:19.077Z,12.88
2023-01-06T19:19:51.632Z,12.30
2023-01-06T19:22:25.815Z,14.20
2023-01-06T19:25:01.222Z,11.13
2023-01-06T19:27:45.951Z,9.85
2023-01-06T19:30:43.597Z,9.70
2023-01-06T19:33:23.461Z,9.02
2023-01-06T19:35:53.741Z,9.38
2023-01-06T19:38:32.159Z,8.68
2023-01-06T19:41:03.752Z,10.40
2023-01-06T19:43:36.607Z,11.63
2023-01-06T19:46:13.986Z,10.90
2023-01-06T19:48:43.737Z,14.05
2023-01-06T19:51:28.218Z,13.27
2023-01-06T19:54:01.460Z,13.60
2023-01-06T19:56:35.549Z,18.52
2023-01-06T19:59:17.341Z,15.35
2023-01-06T20:01:47.947Z,17.52
2023-01-06T20:04:22.807Z,21.08
2023-01-06T20:06:52.306Z,16.20
2023-01-06T20:09:22.914Z,14.85
2023-01-06T20:11:52.919Z,15.75
2023-01-06T20:14:24.440Z,14.15
2023-01-06T20:16:53.985Z,13.73
2023-01-06T20:19:23.213Z,13.70
2023-01-06T20:21:52.875Z,14.35
2023-01-06T20:24:22.162Z,12.38
2023-01-06T20:26:54.530Z,12.48
2023-01-06T20:29:25.065Z,10.38
2023-01-06T20:31:54.536Z,11.18
2023-01-06T20:34:23.827Z,12.68
2023-01-06T20:36:53.422Z,16.77
2023-01-06T20:39:22.638Z,20.08
2023-01-06T20:41:55.057Z,15.25
2023-01-06T20:44:25.816Z,17.95
2023-01-06T20:46:55.735Z,13.85
2023-01-06T20:49:24.862Z,13.10
2023-01-06T20:51:54.377Z,14.85
2023-01-06T20:54:23.607Z,19.02
2023-01-06T20:56:53.916Z,25.35
2023-01-06T20:59:24.535Z,29.80
2023-01-06T21:01:54.867Z,26.00
2023-01-06T21:04:24.633Z,32.13
2023-01-06T21:06:54.128Z,32.05
2023-01-06T21:09:28.159Z,26.50
2023-01-06T21:11:57.655Z,23.88
2023-01-06T21:14:29.571Z,22.90
2023-01-06T21:16:58.994Z,23.27
2023-01-06T21:19:29.763Z,28.30
2023-01-06T21:21:59.351Z,29.80
2023-01-06T21:24:29.481Z,28.08
2023-01-06T21:26:59.114Z,25.70
2023-01-06T21:29:29.722Z,24.27
2023-01-06T21:31:59.054Z,22.35
2023-01-06T21:34:28.137Z,22.73
2023-01-06T21:36:57.598Z,16.85
2023-01-06T21:39:28.055Z,17.88
2023-01-06T21:42:23.320Z,15.65
2023-01-06T21:44:53.906Z,19.42
2023-01-06T21:47:23.311Z,13.27
2023-01-06T21:49:53.690Z,17.30
2023-01-06T21:52:23.200Z,14.30
2023-01-06T21:54:52.294Z,20.75
2023-01-06T21:57:21.746Z,19.80
2023-01-06T21:59:52.219Z,16.23
2023-01-06T22:02:21.816Z,15.82
2023-01-06T22:04:52.428Z,12.10
2023-01-06T22:07:22.504Z,12.88
2023-01-06T22:09:52.330Z,12.75
2023-01-06T22:12:22.127Z,12.57
2023-01-06T22:14:56.680Z,13.32
2023-01-06T22:17:26.875Z,12.37
2023-01-06T22:19:56.583Z,11.98
2023-01-06T22:22:27.118Z,13.13
2023-01-06T22:24:57.725Z,12.50
2023-01-06T22:27:27.176Z,11.85
2023-01-06T22:29:57.602Z,11.25
2023-01-06T22:32:27.696Z,11.18
2023-01-06T22:34:56.817Z,12.07
2023-01-06T22:37:26.191Z,12.52
2023-01-06T22:39:55.259Z,13.35
2023-01-06T22:42:24.789Z,13.25
2023-01-06T22:44:53.856Z,14.10
2023-01-06T22:47:24.668Z,15.02
2023-01-06T22:49:53.885Z,13.75
2023-01-06T22:52:23.291Z,14.82
2023-01-06T22:54:52.418Z,18.17
2023-01-06T22:57:21.963Z,16.98
2023-01-06T22:59:51.090Z,17.33
2023-01-06T23:02:20.676Z,18.95
2023-01-06T23:04:51.371Z,17.42
2023-01-06T23:07:20.688Z,20.25
2023-01-06T23:09:49.732Z,21.75
2023-01-06T23:12:19.123Z,21.33
2023-01-06T23:14:48.217Z,21.63
2023-01-06T23:17:17.766Z,18.40
2023-01-06T23:19:46.824Z,17.20
2023-01-06T23:22:17.643Z,19.58
2023-01-06T23:24:46.789Z,17.70
2023-01-06T23:27:16.414Z,17.65
2023-01-06T23:29:46.527Z,17.85
2023-01-06T23:32:15.926Z,18.45
2023-01-06T23:34:45.007Z,22.45
2023-01-06T23:37:14.345Z,21.10
2023-01-06T23:39:44.949Z,17.00
2023-01-06T23:42:14.395Z,20.13
2023-01-06T23:44:43.527Z,22.13
2023-01-06T23:47:12.934Z,17.42
2023-01-06T23:49:42.185Z,16.95
2023-01-06T23:52:11.587Z,16.90
2023-01-06T23:54:40.662Z,16.88
2023-01-06T23:57:11.433Z,17.90
2023-01-06T23:59:40.545Z,16.88
